sensor_id;sensor_type;location;lat;lon;timestamp;P1;durP1;ratioP1;P2;durP2;ratioP2
59766;SDS011;46248;58.364;25.582;2024-03-08T00:01:31;22.67;;;8.27;;
59766;SDS011;46248;58.364;25.582;2024-03-08T00:04:53;25.73;;;9.45;;
59766;SDS011;46248;58.364;25.582;2024-03-08T00:08:16;30.10;;;10.05;;
59766;SDS011;46248;58.364;25.582;2024-03-08T00:11:38;23.20;;;8.75;;
59766;SDS011;46248;58.364;25.582;2024-03-08T00:15:00;34.50;;;10.52;;
59766;SDS011;46248;58.364;25.582;2024-03-08T00:18:22;67.65;;;12.68;;
59766;SDS011;46248;58.364;25.582;2024-03-08T00:21:44;58.85;;;12.55;;
59766;SDS011;46248;58.364;25.582;2024-03-08T00:25:07;36.15;;;11.65;;
59766;SDS011;46248;58.364;25.582;2024-03-08T00:28:30;37.95;;;10.43;;
59766;SDS011;46248;58.364;25.582;2024-03-08T00:31:52;53.00;;;10.63;;
59766;SDS011;46248;58.364;25.582;2024-03-08T00:35:14;31.40;;;9.52;;
59766;SDS011;46248;58.364;25.582;2024-03-08T00:38:36;47.28;;;11.38;;
59766;SDS011;46248;58.364;25.582;2024-03-08T00:41:59;41.10;;;10.27;;
59766;SDS011;46248;58.364;25.582;2024-03-08T00:45:21;26.80;;;8.95;;
59766;SDS011;46248;58.364;25.582;2024-03-08T00:48:43;38.78;;;9.15;;
59766;SDS011;46248;58.364;25.582;2024-03-08T00:52:05;44.40;;;10.57;;
59766;SDS011;46248;58.364;25.582;2024-03-08T00:55:28;21.10;;;8.20;;
59766;SDS011;46248;58.364;25.582;2024-03-08T00:58:52;24.23;;;9.68;;
59766;SDS011;46248;58.364;25.582;2024-03-08T01:02:13;39.38;;;10.10;;
59766;SDS011;46248;58.364;25.582;2024-03-08T01:05:37;45.00;;;10.75;;
59766;SDS011;46248;58.364;25.582;2024-03-08T01:08:59;50.78;;;12.13;;
59766;SDS011;46248;58.364;25.582;2024-03-08T01:12:21;21.38;;;7.97;;
59766;SDS011;46248;58.364;25.582;2024-03-08T01:15:44;22.75;;;8.45;;
59766;SDS011;46248;58.364;25.582;2024-03-08T01:19:06;24.83;;;8.20;;
59766;SDS011;46248;58.364;25.582;2024-03-08T01:22:28;33.15;;;10.15;;
59766;SDS011;46248;58.364;25.582;2024-03-08T01:25:50;31.33;;;8.75;;
59766;SDS011;46248;58.364;25.582;2024-03-08T01:29:17;37.20;;;8.52;;
59766;SDS011;46248;58.364;25.582;2024-03-08T01:32:40;18.02;;;7.95;;
59766;SDS011;46248;58.364;25.582;2024-03-08T01:36:03;25.02;;;9.85;;
59766;SDS011;46248;58.364;25.582;2024-03-08T01:39:25;38.08;;;9.00;;
59766;SDS011;46248;58.364;25.582;2024-03-08T01:42:47;16.48;;;7.43;;
59766;SDS011;46248;58.364;25.582;2024-03-08T01:46:08;55.00;;;10.40;;
59766;SDS011;46248;58.364;25.582;2024-03-08T01:49:34;33.90;;;9.95;;
59766;SDS011;46248;58.364;25.582;2024-03-08T01:52:55;24.27;;;8.85;;
59766;SDS011;46248;58.364;25.582;2024-03-08T01:56:20;45.13;;;10.38;;
59766;SDS011;46248;58.364;25.582;2024-03-08T01:59:41;43.35;;;10.00;;
59766;SDS011;46248;58.364;25.582;2024-03-08T02:03:03;22.40;;;8.05;;
59766;SDS011;46248;58.364;25.582;2024-03-08T02:06:27;25.42;;;8.30;;
59766;SDS011;46248;58.364;25.582;2024-03-08T02:09:49;24.70;;;8.52;;
59766;SDS011;46248;58.364;25.582;2024-03-08T02:13:11;20.77;;;8.27;;
59766;SDS011;46248;58.364;25.582;2024-03-08T02:16:33;18.35;;;7.38;;
59766;SDS011;46248;58.364;25.582;2024-03-08T02:19:55;15.93;;;6.93;;
59766;SDS011;46248;58.364;25.582;2024-03-08T02:23:21;19.17;;;8.35;;
59766;SDS011;46248;58.364;25.582;2024-03-08T02:26:43;18.65;;;7.35;;
59766;SDS011;46248;58.364;25.582;2024-03-08T02:30:06;29.90;;;10.23;;
59766;SDS011;46248;58.364;25.582;2024-03-08T02:33:30;30.60;;;11.68;;
59766;SDS011;46248;58.364;25.582;2024-03-08T02:36:53;21.88;;;8.85;;
59766;SDS011;46248;58.364;25.582;2024-03-08T02:40:18;20.00;;;8.38;;
59766;SDS011;46248;58.364;25.582;2024-03-08T02:43:39;20.45;;;8.93;;
59766;SDS011;46248;58.364;25.582;2024-03-08T02:47:01;28.33;;;9.93;;
59766;SDS011;46248;58.364;25.582;2024-03-08T02:50:23;24.85;;;10.27;;
59766;SDS011;46248;58.364;25.582;2024-03-08T02:53:45;21.98;;;9.65;;
59766;SDS011;46248;58.364;25.582;2024-03-08T02:57:10;23.77;;;9.63;;
59766;SDS011;46248;58.364;25.582;2024-03-08T03:00:32;30.08;;;10.00;;
59766;SDS011;46248;58.364;25.582;2024-03-08T03:03:54;23.38;;;9.38;;
59766;SDS011;46248;58.364;25.582;2024-03-08T03:07:16;20.02;;;7.57;;
59766;SDS011;46248;58.364;25.582;2024-03-08T03:10:38;67.53;;;31.35;;
59766;SDS011;46248;58.364;25.582;2024-03-08T03:14:01;50.72;;;16.40;;
59766;SDS011;46248;58.364;25.582;2024-03-08T03:17:23;25.00;;;10.18;;
59766;SDS011;46248;58.364;25.582;2024-03-08T03:20:45;20.65;;;9.70;;
59766;SDS011;46248;58.364;25.582;2024-03-08T03:24:08;23.70;;;9.63;;
59766;SDS011;46248;58.364;25.582;2024-03-08T03:27:31;23.33;;;10.48;;
59766;SDS011;46248;58.364;25.582;2024-03-08T03:30:54;22.83;;;9.65;;
59766;SDS011;46248;58.364;25.582;2024-03-08T03:34:19;22.10;;;8.95;;
59766;SDS011;46248;58.364;25.582;2024-03-08T03:37:41;25.48;;;9.10;;
59766;SDS011;46248;58.364;25.582;2024-03-08T03:41:05;20.50;;;8.80;;
59766;SDS011;46248;58.364;25.582;2024-03-08T03:44:30;21.20;;;8.50;;
59766;SDS011;46248;58.364;25.582;2024-03-08T03:47:54;22.83;;;9.95;;
59766;SDS011;46248;58.364;25.582;2024-03-08T03:51:16;24.65;;;9.88;;
59766;SDS011;46248;58.364;25.582;2024-03-08T03:54:38;25.13;;;8.73;;
59766;SDS011;46248;58.364;25.582;2024-03-08T03:58:00;18.73;;;8.07;;
59766;SDS011;46248;58.364;25.582;2024-03-08T04:01:22;18.80;;;8.35;;
59766;SDS011;46248;58.364;25.582;2024-03-08T04:04:46;23.23;;;9.35;;
59766;SDS011;46248;58.364;25.582;2024-03-08T04:08:07;28.35;;;11.23;;
59766;SDS011;46248;58.364;25.582;2024-03-08T04:11:29;23.80;;;10.30;;
59766;SDS011;46248;58.364;25.582;2024-03-08T04:14:51;23.83;;;9.68;;
59766;SDS011;46248;58.364;25.582;2024-03-08T04:18:13;24.92;;;10.70;;
59766;SDS011;46248;58.364;25.582;2024-03-08T04:21:36;29.02;;;11.05;;
59766;SDS011;46248;58.364;25.582;2024-03-08T04:24:58;31.52;;;11.27;;
59766;SDS011;46248;58.364;25.582;2024-03-08T04:28:20;23.45;;;9.30;;
59766;SDS011;46248;58.364;25.582;2024-03-08T04:31:41;24.88;;;10.45;;
59766;SDS011;46248;58.364;25.582;2024-03-08T04:35:03;20.40;;;8.70;;
59766;SDS011;46248;58.364;25.582;2024-03-08T04:38:26;23.45;;;9.45;;
59766;SDS011;46248;58.364;25.582;2024-03-08T04:41:48;30.42;;;12.48;;
59766;SDS011;46248;58.364;25.582;2024-03-08T04:45:11;23.17;;;10.23;;
59766;SDS011;46248;58.364;25.582;2024-03-08T04:48:34;23.63;;;9.55;;
59766;SDS011;46248;58.364;25.582;2024-03-08T04:51:57;22.73;;;10.18;;
59766;SDS011;46248;58.364;25.582;2024-03-08T04:55:20;30.85;;;11.15;;
59766;SDS011;46248;58.364;25.582;2024-03-08T04:58:42;27.42;;;10.25;;
59766;SDS011;46248;58.364;25.582;2024-03-08T05:02:06;31.55;;;12.00;;
59766;SDS011;46248;58.364;25.582;2024-03-08T05:05:28;34.88;;;13.18;;
59766;SDS011;46248;58.364;25.582;2024-03-08T05:08:50;33.65;;;11.98;;
59766;SDS011;46248;58.364;25.582;2024-03-08T05:12:14;23.83;;;10.95;;
59766;SDS011;46248;58.364;25.582;2024-03-08T05:15:36;24.42;;;9.77;;
59766;SDS011;46248;58.364;25.582;2024-03-08T05:18:59;35.53;;;13.43;;
59766;SDS011;46248;58.364;25.582;2024-03-08T05:22:21;31.27;;;11.13;;
59766;SDS011;46248;58.364;25.582;2024-03-08T05:25:43;20.38;;;9.85;;
59766;SDS011;46248;58.364;25.582;2024-03-08T05:29:06;21.83;;;10.43;;
59766;SDS011;46248;58.364;25.582;2024-03-08T05:32:29;32.13;;;11.55;;
59766;SDS011;46248;58.364;25.582;2024-03-08T05:35:50;28.48;;;12.35;;
59766;SDS011;46248;58.364;25.582;2024-03-08T05:39:12;23.08;;;9.27;;
59766;SDS011;46248;58.364;25.582;2024-03-08T05:42:35;24.23;;;9.73;;
59766;SDS011;46248;58.364;25.582;2024-03-08T05:45:58;28.10;;;11.98;;
59766;SDS011;46248;58.364;25.582;2024-03-08T05:49:20;35.35;;;15.05;;
59766;SDS011;46248;58.364;25.582;2024-03-08T05:52:41;31.52;;;11.38;;
59766;SDS011;46248;58.364;25.582;2024-03-08T05:56:03;39.28;;;14.13;;
59766;SDS011;46248;58.364;25.582;2024-03-08T05:59:25;29.98;;;12.73;;
59766;SDS011;46248;58.364;25.582;2024-03-08T06:02:49;31.08;;;12.77;;
59766;SDS011;46248;58.364;25.582;2024-03-08T06:06:12;33.40;;;12.52;;
59766;SDS011;46248;58.364;25.582;2024-03-08T06:09:34;37.78;;;13.93;;
59766;SDS011;46248;58.364;25.582;2024-03-08T06:12:56;30.85;;;12.70;;
59766;SDS011;46248;58.364;25.582;2024-03-08T06:16:17;29.10;;;11.57;;
59766;SDS011;46248;58.364;25.582;2024-03-08T06:19:40;26.52;;;11.90;;
59766;SDS011;46248;58.364;25.582;2024-03-08T06:23:02;53.75;;;22.00;;
59766;SDS011;46248;58.364;25.582;2024-03-08T06:26:24;32.05;;;12.93;;
59766;SDS011;46248;58.364;25.582;2024-03-08T06:29:50;41.55;;;16.25;;
59766;SDS011;46248;58.364;25.582;2024-03-08T06:33:11;53.33;;;22.27;;
59766;SDS011;46248;58.364;25.582;2024-03-08T06:36:35;38.88;;;15.90;;
59766;SDS011;46248;58.364;25.582;2024-03-08T06:39:59;30.30;;;13.88;;
59766;SDS011;46248;58.364;25.582;2024-03-08T06:43:20;25.88;;;10.18;;
59766;SDS011;46248;58.364;25.582;2024-03-08T06:46:42;28.85;;;13.10;;
59766;SDS011;46248;58.364;25.582;2024-03-08T06:50:05;21.23;;;10.52;;
59766;SDS011;46248;58.364;25.582;2024-03-08T06:53:29;26.73;;;11.07;;
59766;SDS011;46248;58.364;25.582;2024-03-08T06:56:51;21.67;;;9.63;;
59766;SDS011;46248;58.364;25.582;2024-03-08T07:00:13;20.90;;;9.13;;
59766;SDS011;46248;58.364;25.582;2024-03-08T07:03:41;23.13;;;9.95;;
59766;SDS011;46248;58.364;25.582;2024-03-08T07:07:05;22.83;;;9.35;;
59766;SDS011;46248;58.364;25.582;2024-03-08T07:10:31;31.55;;;11.25;;
59766;SDS011;46248;58.364;25.582;2024-03-08T07:13:52;26.27;;;10.82;;
59766;SDS011;46248;58.364;25.582;2024-03-08T07:17:14;23.17;;;9.65;;
59766;SDS011;46248;58.364;25.582;2024-03-08T07:20:36;29.20;;;10.18;;
59766;SDS011;46248;58.364;25.582;2024-03-08T07:23:58;26.25;;;9.77;;
59766;SDS011;46248;58.364;25.582;2024-03-08T07:27:46;16.20;;;7.80;;
59766;SDS011;46248;58.364;25.582;2024-03-08T07:31:08;27.35;;;10.77;;
59766;SDS011;46248;58.364;25.582;2024-03-08T07:34:41;25.52;;;10.70;;
59766;SDS011;46248;58.364;25.582;2024-03-08T07:38:03;27.73;;;10.02;;
59766;SDS011;46248;58.364;25.582;2024-03-08T07:41:25;31.92;;;12.07;;
59766;SDS011;46248;58.364;25.582;2024-03-08T07:44:49;30.08;;;13.32;;
59766;SDS011;46248;58.364;25.582;2024-03-08T07:48:11;29.67;;;11.70;;
59766;SDS011;46248;58.364;25.582;2024-03-08T07:51:33;27.13;;;9.65;;
59766;SDS011;46248;58.364;25.582;2024-03-08T07:54:56;21.80;;;9.20;;
59766;SDS011;46248;58.364;25.582;2024-03-08T07:58:17;24.33;;;9.27;;
59766;SDS011;46248;58.364;25.582;2024-03-08T08:01:41;23.30;;;8.93;;
59766;SDS011;46248;58.364;25.582;2024-03-08T08:05:04;21.83;;;8.68;;
59766;SDS011;46248;58.364;25.582;2024-03-08T08:08:26;24.70;;;8.48;;
59766;SDS011;46248;58.364;25.582;2024-03-08T08:11:48;19.58;;;8.85;;
59766;SDS011;46248;58.364;25.582;2024-03-08T08:15:10;23.08;;;10.02;;
59766;SDS011;46248;58.364;25.582;2024-03-08T08:18:33;24.58;;;10.35;;
59766;SDS011;46248;58.364;25.582;2024-03-08T08:21:55;19.60;;;8.77;;
59766;SDS011;46248;58.364;25.582;2024-03-08T08:25:18;33.42;;;11.75;;
59766;SDS011;46248;58.364;25.582;2024-03-08T08:28:40;26.25;;;11.18;;
59766;SDS011;46248;58.364;25.582;2024-03-08T08:32:03;23.02;;;9.50;;
59766;SDS011;46248;58.364;25.582;2024-03-08T08:35:27;14.48;;;7.20;;
59766;SDS011;46248;58.364;25.582;2024-03-08T08:38:49;23.67;;;8.10;;
59766;SDS011;46248;58.364;25.582;2024-03-08T08:42:13;18.90;;;7.22;;
59766;SDS011;46248;58.364;25.582;2024-03-08T08:45:35;24.85;;;8.77;;
59766;SDS011;46248;58.364;25.582;2024-03-08T08:48:58;16.95;;;7.10;;
59766;SDS011;46248;58.364;25.582;2024-03-08T08:52:22;16.83;;;7.32;;
59766;SDS011;46248;58.364;25.582;2024-03-08T08:55:44;26.95;;;9.45;;
59766;SDS011;46248;58.364;25.582;2024-03-08T08:59:07;22.83;;;8.55;;
59766;SDS011;46248;58.364;25.582;2024-03-08T09:02:28;18.60;;;7.30;;
59766;SDS011;46248;58.364;25.582;2024-03-08T09:05:51;19.27;;;8.35;;
59766;SDS011;46248;58.364;25.582;2024-03-08T09:09:14;21.48;;;8.80;;
59766;SDS011;46248;58.364;25.582;2024-03-08T09:12:37;22.30;;;8.23;;
59766;SDS011;46248;58.364;25.582;2024-03-08T09:15:59;19.98;;;8.35;;
59766;SDS011;46248;58.364;25.582;2024-03-08T09:19:21;22.30;;;8.15;;
59766;SDS011;46248;58.364;25.582;2024-03-08T09:22:46;25.38;;;8.05;;
59766;SDS011;46248;58.364;25.582;2024-03-08T09:26:09;19.60;;;8.18;;
59766;SDS011;46248;58.364;25.582;2024-03-08T09:29:44;28.30;;;10.10;;
59766;SDS011;46248;58.364;25.582;2024-03-08T09:33:06;34.80;;;14.98;;
59766;SDS011;46248;58.364;25.582;2024-03-08T09:36:27;25.17;;;11.35;;
59766;SDS011;46248;58.364;25.582;2024-03-08T09:39:49;22.65;;;9.55;;
59766;SDS011;46248;58.364;25.582;2024-03-08T09:43:13;21.35;;;7.40;;
59766;SDS011;46248;58.364;25.582;2024-03-08T09:46:35;17.90;;;6.75;;
59766;SDS011;46248;58.364;25.582;2024-03-08T09:49:57;13.45;;;6.15;;
59766;SDS011;46248;58.364;25.582;2024-03-08T09:53:19;35.50;;;7.47;;
59766;SDS011;46248;58.364;25.582;2024-03-08T09:56:42;14.00;;;5.10;;
59766;SDS011;46248;58.364;25.582;2024-03-08T10:00:07;12.00;;;5.68;;
59766;SDS011;46248;58.364;25.582;2024-03-08T10:03:39;13.55;;;6.40;;
59766;SDS011;46248;58.364;25.582;2024-03-08T10:07:01;15.45;;;6.95;;
59766;SDS011;46248;58.364;25.582;2024-03-08T10:10:23;16.30;;;8.48;;
59766;SDS011;46248;58.364;25.582;2024-03-08T10:13:45;18.38;;;9.20;;
59766;SDS011;46248;58.364;25.582;2024-03-08T10:17:11;15.68;;;6.43;;
59766;SDS011;46248;58.364;25.582;2024-03-08T10:20:33;16.83;;;8.05;;
59766;SDS011;46248;58.364;25.582;2024-03-08T10:23:55;18.60;;;7.25;;
59766;SDS011;46248;58.364;25.582;2024-03-08T10:27:18;12.18;;;5.88;;
59766;SDS011;46248;58.364;25.582;2024-03-08T10:30:46;15.18;;;6.53;;
59766;SDS011;46248;58.364;25.582;2024-03-08T10:34:10;16.20;;;7.13;;
59766;SDS011;46248;58.364;25.582;2024-03-08T10:37:32;13.35;;;5.53;;
59766;SDS011;46248;58.364;25.582;2024-03-08T10:40:54;16.85;;;7.35;;
59766;SDS011;46248;58.364;25.582;2024-03-08T10:44:18;14.88;;;5.78;;
59766;SDS011;46248;58.364;25.582;2024-03-08T10:47:55;13.82;;;5.60;;
59766;SDS011;46248;58.364;25.582;2024-03-08T10:51:28;19.63;;;5.68;;
59766;SDS011;46248;58.364;25.582;2024-03-08T10:54:50;13.65;;;6.10;;
59766;SDS011;46248;58.364;25.582;2024-03-08T10:58:16;15.70;;;7.18;;
59766;SDS011;46248;58.364;25.582;2024-03-08T11:01:39;15.70;;;7.60;;
59766;SDS011;46248;58.364;25.582;2024-03-08T11:05:01;17.65;;;7.68;;
59766;SDS011;46248;58.364;25.582;2024-03-08T11:08:25;17.35;;;6.38;;
59766;SDS011;46248;58.364;25.582;2024-03-08T11:11:47;15.98;;;6.30;;
59766;SDS011;46248;58.364;25.582;2024-03-08T11:15:09;17.92;;;6.30;;
59766;SDS011;46248;58.364;25.582;2024-03-08T11:18:35;14.95;;;5.22;;
59766;SDS011;46248;58.364;25.582;2024-03-08T11:21:58;9.57;;;4.70;;
59766;SDS011;46248;58.364;25.582;2024-03-08T11:25:35;10.45;;;4.57;;
59766;SDS011;46248;58.364;25.582;2024-03-08T11:32:57;13.25;;;5.85;;
59766;SDS011;46248;58.364;25.582;2024-03-08T11:36:23;11.55;;;5.43;;
59766;SDS011;46248;58.364;25.582;2024-03-08T11:39:46;12.75;;;5.93;;
59766;SDS011;46248;58.364;25.582;2024-03-08T11:43:11;10.73;;;5.15;;
59766;SDS011;46248;58.364;25.582;2024-03-08T11:46:33;7.90;;;4.43;;
59766;SDS011;46248;58.364;25.582;2024-03-08T11:49:55;14.45;;;5.75;;
59766;SDS011;46248;58.364;25.582;2024-03-08T11:53:17;13.15;;;5.03;;
59766;SDS011;46248;58.364;25.582;2024-03-08T11:56:39;11.68;;;5.50;;
59766;SDS011;46248;58.364;25.582;2024-03-08T12:00:04;13.90;;;5.57;;
59766;SDS011;46248;58.364;25.582;2024-03-08T12:03:27;9.20;;;4.95;;
59766;SDS011;46248;58.364;25.582;2024-03-08T12:06:49;14.82;;;6.40;;
59766;SDS011;46248;58.364;25.582;2024-03-08T12:10:15;13.95;;;6.10;;
59766;SDS011;46248;58.364;25.582;2024-03-08T12:13:38;27.52;;;6.50;;
59766;SDS011;46248;58.364;25.582;2024-03-08T12:17:02;13.85;;;5.82;;
59766;SDS011;46248;58.364;25.582;2024-03-08T12:20:26;13.48;;;6.25;;
59766;SDS011;46248;58.364;25.582;2024-03-08T12:24:01;17.05;;;6.18;;
59766;SDS011;46248;58.364;25.582;2024-03-08T12:27:24;13.65;;;5.97;;
59766;SDS011;46248;58.364;25.582;2024-03-08T12:30:49;13.18;;;5.35;;
59766;SDS011;46248;58.364;25.582;2024-03-08T12:34:14;10.23;;;4.82;;
59766;SDS011;46248;58.364;25.582;2024-03-08T12:37:36;15.30;;;7.10;;
59766;SDS011;46248;58.364;25.582;2024-03-08T12:40:59;19.60;;;8.10;;
59766;SDS011;46248;58.364;25.582;2024-03-08T12:44:22;15.45;;;7.47;;
59766;SDS011;46248;58.364;25.582;2024-03-08T12:47:45;13.15;;;5.70;;
59766;SDS011;46248;58.364;25.582;2024-03-08T12:51:09;11.63;;;4.68;;
59766;SDS011;46248;58.364;25.582;2024-03-08T12:54:31;15.25;;;6.03;;
59766;SDS011;46248;58.364;25.582;2024-03-08T12:57:53;14.30;;;5.50;;
59766;SDS011;46248;58.364;25.582;2024-03-08T13:01:15;9.10;;;5.20;;
59766;SDS011;46248;58.364;25.582;2024-03-08T13:04:38;22.27;;;6.68;;
59766;SDS011;46248;58.364;25.582;2024-03-08T13:08:02;18.33;;;6.68;;
59766;SDS011;46248;58.364;25.582;2024-03-08T13:11:24;17.77;;;6.90;;
59766;SDS011;46248;58.364;25.582;2024-03-08T13:14:48;16.75;;;7.07;;
59766;SDS011;46248;58.364;25.582;2024-03-08T13:18:10;20.88;;;10.43;;
59766;SDS011;46248;58.364;25.582;2024-03-08T13:21:32;14.27;;;6.55;;
59766;SDS011;46248;58.364;25.582;2024-03-08T13:24:57;10.80;;;4.97;;
59766;SDS011;46248;58.364;25.582;2024-03-08T13:28:21;9.45;;;5.60;;
59766;SDS011;46248;58.364;25.582;2024-03-08T13:31:48;17.38;;;7.57;;
59766;SDS011;46248;58.364;25.582;2024-03-08T13:35:12;17.13;;;8.45;;
59766;SDS011;46248;58.364;25.582;2024-03-08T13:38:35;12.20;;;6.57;;
59766;SDS011;46248;58.364;25.582;2024-03-08T13:41:58;13.07;;;7.22;;
59766;SDS011;46248;58.364;25.582;2024-03-08T13:45:19;10.50;;;5.90;;
59766;SDS011;46248;58.364;25.582;2024-03-08T13:48:44;13.43;;;6.35;;
59766;SDS011;46248;58.364;25.582;2024-03-08T13:52:06;16.77;;;7.10;;
59766;SDS011;46248;58.364;25.582;2024-03-08T13:55:29;12.10;;;6.32;;
59766;SDS011;46248;58.364;25.582;2024-03-08T13:58:52;9.90;;;4.88;;
59766;SDS011;46248;58.364;25.582;2024-03-08T14:02:17;13.27;;;6.43;;
59766;SDS011;46248;58.364;25.582;2024-03-08T14:05:39;23.27;;;10.77;;
59766;SDS011;46248;58.364;25.582;2024-03-08T14:09:02;48.28;;;18.10;;
59766;SDS011;46248;58.364;25.582;2024-03-08T14:12:27;38.30;;;13.98;;
59766;SDS011;46248;58.364;25.582;2024-03-08T14:15:51;18.40;;;8.05;;
59766;SDS011;46248;58.364;25.582;2024-03-08T14:19:13;11.32;;;6.03;;
59766;SDS011;46248;58.364;25.582;2024-03-08T14:22:35;23.98;;;9.82;;
59766;SDS011;46248;58.364;25.582;2024-03-08T14:25:57;9.65;;;5.53;;
59766;SDS011;46248;58.364;25.582;2024-03-08T14:29:19;13.10;;;5.55;;
59766;SDS011;46248;58.364;25.582;2024-03-08T14:32:42;16.88;;;7.47;;
59766;SDS011;46248;58.364;25.582;2024-03-08T14:36:05;14.15;;;6.32;;
59766;SDS011;46248;58.364;25.582;2024-03-08T14:39:27;17.30;;;7.75;;
59766;SDS011;46248;58.364;25.582;2024-03-08T14:42:49;14.40;;;8.50;;
59766;SDS011;46248;58.364;25.582;2024-03-08T14:46:11;15.02;;;7.07;;
59766;SDS011;46248;58.364;25.582;2024-03-08T14:49:39;14.07;;;6.30;;
59766;SDS011;46248;58.364;25.582;2024-03-08T14:53:01;18.65;;;8.60;;
59766;SDS011;46248;58.364;25.582;2024-03-08T14:56:27;13.57;;;7.22;;
59766;SDS011;46248;58.364;25.582;2024-03-08T14:59:49;18.50;;;8.77;;
59766;SDS011;46248;58.364;25.582;2024-03-08T15:03:11;21.88;;;10.40;;
59766;SDS011;46248;58.364;25.582;2024-03-08T15:06:38;22.08;;;9.50;;
59766;SDS011;46248;58.364;25.582;2024-03-08T15:10:03;22.83;;;9.73;;
59766;SDS011;46248;58.364;25.582;2024-03-08T15:13:30;12.43;;;6.10;;
59766;SDS011;46248;58.364;25.582;2024-03-08T15:16:59;12.07;;;5.80;;
59766;SDS011;46248;58.364;25.582;2024-03-08T15:20:27;10.45;;;5.20;;
59766;SDS011;46248;58.364;25.582;2024-03-08T15:23:55;14.68;;;6.38;;
59766;SDS011;46248;58.364;25.582;2024-03-08T15:27:17;11.75;;;6.03;;
59766;SDS011;46248;58.364;25.582;2024-03-08T15:30:39;8.80;;;5.13;;
59766;SDS011;46248;58.364;25.582;2024-03-08T15:34:06;14.88;;;5.97;;
59766;SDS011;46248;58.364;25.582;2024-03-08T15:37:29;13.90;;;5.47;;
59766;SDS011;46248;58.364;25.582;2024-03-08T15:40:52;10.93;;;5.47;;
59766;SDS011;46248;58.364;25.582;2024-03-08T15:44:15;10.95;;;4.93;;
59766;SDS011;46248;58.364;25.582;2024-03-08T15:47:37;13.20;;;6.32;;
59766;SDS011;46248;58.364;25.582;2024-03-08T15:51:00;16.88;;;8.57;;
59766;SDS011;46248;58.364;25.582;2024-03-08T15:54:27;12.50;;;7.03;;
59766;SDS011;46248;58.364;25.582;2024-03-08T15:57:50;11.23;;;6.40;;
59766;SDS011;46248;58.364;25.582;2024-03-08T16:01:13;10.35;;;5.75;;
59766;SDS011;46248;58.364;25.582;2024-03-08T16:04:37;9.43;;;5.00;;
59766;SDS011;46248;58.364;25.582;2024-03-08T16:07:59;10.85;;;5.60;;
59766;SDS011;46248;58.364;25.582;2024-03-08T16:11:21;41.00;;;13.27;;
59766;SDS011;46248;58.364;25.582;2024-03-08T16:14:44;15.00;;;7.15;;
59766;SDS011;46248;58.364;25.582;2024-03-08T16:18:06;19.80;;;7.43;;
59766;SDS011;46248;58.364;25.582;2024-03-08T16:21:29;9.63;;;5.00;;
59766;SDS011;46248;58.364;25.582;2024-03-08T16:24:54;13.25;;;6.25;;
59766;SDS011;46248;58.364;25.582;2024-03-08T16:28:16;13.38;;;6.13;;
59766;SDS011;46248;58.364;25.582;2024-03-08T16:31:40;17.70;;;6.32;;
59766;SDS011;46248;58.364;25.582;2024-03-08T16:35:05;22.38;;;8.57;;
59766;SDS011;46248;58.364;25.582;2024-03-08T16:38:30;18.67;;;7.10;;
59766;SDS011;46248;58.364;25.582;2024-03-08T16:41:57;11.63;;;5.22;;
59766;SDS011;46248;58.364;25.582;2024-03-08T16:45:19;10.27;;;6.22;;
59766;SDS011;46248;58.364;25.582;2024-03-08T16:48:43;11.63;;;5.03;;
59766;SDS011;46248;58.364;25.582;2024-03-08T16:52:05;15.75;;;6.07;;
59766;SDS011;46248;58.364;25.582;2024-03-08T16:55:27;9.52;;;5.07;;
59766;SDS011;46248;58.364;25.582;2024-03-08T16:58:50;9.70;;;4.55;;
59766;SDS011;46248;58.364;25.582;2024-03-08T17:02:14;10.60;;;4.90;;
59766;SDS011;46248;58.364;25.582;2024-03-08T17:05:37;8.55;;;4.05;;
59766;SDS011;46248;58.364;25.582;2024-03-08T17:09:04;15.70;;;6.68;;
59766;SDS011;46248;58.364;25.582;2024-03-08T17:12:31;15.52;;;5.72;;
59766;SDS011;46248;58.364;25.582;2024-03-08T17:15:53;10.68;;;6.30;;
59766;SDS011;46248;58.364;25.582;2024-03-08T17:19:15;14.15;;;6.68;;
59766;SDS011;46248;58.364;25.582;2024-03-08T17:22:39;10.45;;;5.43;;
59766;SDS011;46248;58.364;25.582;2024-03-08T17:26:02;9.18;;;5.50;;
59766;SDS011;46248;58.364;25.582;2024-03-08T17:29:28;11.38;;;5.28;;
59766;SDS011;46248;58.364;25.582;2024-03-08T17:32:50;8.18;;;4.68;;
59766;SDS011;46248;58.364;25.582;2024-03-08T17:39:42;7.28;;;3.22;;
59766;SDS011;46248;58.364;25.582;2024-03-08T17:43:04;12.45;;;3.78;;
59766;SDS011;46248;58.364;25.582;2024-03-08T17:46:30;10.07;;;6.80;;
59766;SDS011;46248;58.364;25.582;2024-03-08T17:49:53;15.13;;;7.03;;
59766;SDS011;46248;58.364;25.582;2024-03-08T17:53:15;6.18;;;3.53;;
59766;SDS011;46248;58.364;25.582;2024-03-08T17:56:40;7.25;;;3.55;;
59766;SDS011;46248;58.364;25.582;2024-03-08T18:00:02;7.63;;;4.80;;
59766;SDS011;46248;58.364;25.582;2024-03-08T18:03:30;9.80;;;4.70;;
59766;SDS011;46248;58.364;25.582;2024-03-08T18:06:52;10.05;;;5.00;;
59766;SDS011;46248;58.364;25.582;2024-03-08T18:10:13;8.63;;;4.38;;
59766;SDS011;46248;58.364;25.582;2024-03-08T18:13:40;6.97;;;4.10;;
59766;SDS011;46248;58.364;25.582;2024-03-08T18:17:03;8.98;;;4.10;;
59766;SDS011;46248;58.364;25.582;2024-03-08T18:20:27;4.75;;;2.88;;
59766;SDS011;46248;58.364;25.582;2024-03-08T18:23:52;6.22;;;3.78;;
59766;SDS011;46248;58.364;25.582;2024-03-08T18:27:15;7.53;;;4.13;;
59766;SDS011;46248;58.364;25.582;2024-03-08T18:30:38;4.70;;;3.00;;
59766;SDS011;46248;58.364;25.582;2024-03-08T18:34:01;7.90;;;4.43;;
59766;SDS011;46248;58.364;25.582;2024-03-08T18:37:26;4.43;;;3.38;;
59766;SDS011;46248;58.364;25.582;2024-03-08T18:40:48;7.95;;;3.22;;
59766;SDS011;46248;58.364;25.582;2024-03-08T18:44:10;6.78;;;2.42;;
59766;SDS011;46248;58.364;25.582;2024-03-08T18:47:35;3.08;;;1.90;;
59766;SDS011;46248;58.364;25.582;2024-03-08T18:50:57;3.42;;;2.03;;
59766;SDS011;46248;58.364;25.582;2024-03-08T18:54:19;4.80;;;2.40;;
59766;SDS011;46248;58.364;25.582;2024-03-08T18:57:42;4.20;;;2.40;;
59766;SDS011;46248;58.364;25.582;2024-03-08T19:01:05;5.55;;;3.17;;
59766;SDS011;46248;58.364;25.582;2024-03-08T19:04:29;5.43;;;2.67;;
59766;SDS011;46248;58.364;25.582;2024-03-08T19:07:51;7.38;;;3.45;;
59766;SDS011;46248;58.364;25.582;2024-03-08T19:11:15;6.63;;;3.58;;
59766;SDS011;46248;58.364;25.582;2024-03-08T19:14:36;5.10;;;2.85;;
59766;SDS011;46248;58.364;25.582;2024-03-08T19:17:59;5.82;;;3.83;;
59766;SDS011;46248;58.364;25.582;2024-03-08T19:21:24;5.28;;;2.90;;
59766;SDS011;46248;58.364;25.582;2024-03-08T19:24:49;4.65;;;3.20;;
59766;SDS011;46248;58.364;25.582;2024-03-08T19:28:11;6.18;;;3.22;;
59766;SDS011;46248;58.364;25.582;2024-03-08T19:31:36;6.88;;;3.25;;
59766;SDS011;46248;58.364;25.582;2024-03-08T19:34:58;4.65;;;2.63;;
59766;SDS011;46248;58.364;25.582;2024-03-08T19:38:22;4.65;;;2.72;;
59766;SDS011;46248;58.364;25.582;2024-03-08T19:41:44;6.85;;;3.42;;
59766;SDS011;46248;58.364;25.582;2024-03-08T19:45:06;5.05;;;2.97;;
59766;SDS011;46248;58.364;25.582;2024-03-08T19:48:30;8.25;;;3.60;;
59766;SDS011;46248;58.364;25.582;2024-03-08T19:51:52;5.75;;;3.58;;
59766;SDS011;46248;58.364;25.582;2024-03-08T19:55:17;4.60;;;3.17;;